sensor_id;sensor_type;location;lat;lon;timestamp;pressure;altitude;pressure_sealevel;temperature;humidity
68712;BME280;55690;51.566;19.198;2022-11-13T00:02:20;103362.28;;;7.42;100.00
68712;BME280;55690;51.566;19.198;2022-11-13T00:06:30;103358.73;;;7.38;100.00
68712;BME280;55690;51.566;19.198;2022-11-13T00:10:32;103359.55;;;7.43;100.00
68712;BME280;55690;51.566;19.198;2022-11-13T00:14:38;103356.05;;;7.37;100.00
68712;BME280;55690;51.566;19.198;2022-11-13T00:18:45;103364.94;;;7.43;100.00
68712;BME280;55690;51.566;19.198;2022-11-13T00:22:51;103356.66;;;7.52;100.00
68712;BME280;55690;51.566;19.198;2022-11-13T00:26:57;103364.89;;;7.46;100.00
68712;BME280;55690;51.566;19.198;2022-11-13T00:31:05;103355.59;;;7.61;100.00
68712;BME280;55690;51.566;19.198;2022-11-13T00:35:09;103348.38;;;7.61;100.00
68712;BME280;55690;51.566;19.198;2022-11-13T00:39:16;103356.55;;;7.58;100.00
68712;BME280;55690;51.566;19.198;2022-11-13T00:43:22;103351.30;;;7.49;100.00
68712;BME280;55690;51.566;19.198;2022-11-13T00:47:28;103346.97;;;7.41;100.00
68712;BME280;55690;51.566;19.198;2022-11-13T00:51:34;103343.32;;;7.43;100.00
68712;BME280;55690;51.566;19.198;2022-11-13T00:55:44;103334.23;;;7.47;100.00
68712;BME280;55690;51.566;19.198;2022-11-13T00:59:46;103330.73;;;7.42;100.00
68712;BME280;55690;51.566;19.198;2022-11-13T01:12:37;103317.42;;;7.33;100.00
68712;BME280;55690;51.566;19.198;2022-11-13T01:16:39;103318.16;;;7.40;100.00
68712;BME280;55690;51.566;19.198;2022-11-13T01:20:41;103318.40;;;7.29;100.00
68712;BME280;55690;51.566;19.198;2022-11-13T01:24:43;103313.21;;;7.17;100.00
68712;BME280;55690;51.566;19.198;2022-11-13T01:28:45;103313.10;;;7.23;100.00
68712;BME280;55690;51.566;19.198;2022-11-13T01:32:47;103309.40;;;7.28;100.00
68712;BME280;55690;51.566;19.198;2022-11-13T01:36:48;103301.49;;;7.18;100.00
68712;BME280;55690;51.566;19.198;2022-11-13T01:40:50;103302.30;;;7.23;100.00
68712;BME280;55690;51.566;19.198;2022-11-13T01:44:57;103293.95;;;7.35;100.00
68712;BME280;55690;51.566;19.198;2022-11-13T01:57:20;103284.24;;;7.25;100.00
68712;BME280;55690;51.566;19.198;2022-11-13T02:01:22;103280.62;;;7.26;100.00
68712;BME280;55690;51.566;19.198;2022-11-13T02:05:25;103286.26;;;7.14;100.00
68712;BME280;55690;51.566;19.198;2022-11-13T02:09:40;103285.16;;;7.24;100.00
68712;BME280;55690;51.566;19.198;2022-11-13T02:13:43;103286.83;;;7.31;100.00
68712;BME280;55690;51.566;19.198;2022-11-13T02:17:49;103282.69;;;7.12;100.00
68712;BME280;55690;51.566;19.198;2022-11-13T02:26:08;103283.14;;;7.35;100.00
68712;BME280;55690;51.566;19.198;2022-11-13T02:30:18;103278.65;;;7.34;100.00
68712;BME280;55690;51.566;19.198;2022-11-13T02:34:20;103284.83;;;7.39;100.00
68712;BME280;55690;51.566;19.198;2022-11-13T02:38:22;103277.58;;;7.41;100.00
68712;BME280;55690;51.566;19.198;2022-11-13T02:42:23;103268.54;;;7.42;100.00
68712;BME280;55690;51.566;19.198;2022-11-13T02:46:27;103274.26;;;7.28;100.00
68712;BME280;55690;51.566;19.198;2022-11-13T02:54:49;103285.63;;;7.44;100.00
68712;BME280;55690;51.566;19.198;2022-11-13T02:58:55;103289.59;;;7.28;100.00
68712;BME280;55690;51.566;19.198;2022-11-13T03:02:57;103280.31;;;7.40;100.00
68712;BME280;55690;51.566;19.198;2022-11-13T03:06:58;103278.63;;;7.36;100.00
68712;BME280;55690;51.566;19.198;2022-11-13T03:11:09;103281.23;;;7.39;100.00
68712;BME280;55690;51.566;19.198;2022-11-13T03:15:11;103278.75;;;7.29;100.00
68712;BME280;55690;51.566;19.198;2022-11-13T03:19:16;103284.24;;;7.25;100.00
68712;BME280;55690;51.566;19.198;2022-11-13T03:23:22;103285.11;;;7.27;100.00
68712;BME280;55690;51.566;19.198;2022-11-13T03:31:59;103276.60;;;7.45;100.00
68712;BME280;55690;51.566;19.198;2022-11-13T03:36:03;103283.84;;;7.43;100.00
68712;BME280;55690;51.566;19.198;2022-11-13T03:40:06;103281.88;;;7.51;100.00
68712;BME280;55690;51.566;19.198;2022-11-13T03:44:11;103274.72;;;7.49;100.00
68712;BME280;55690;51.566;19.198;2022-11-13T03:48:30;103278.26;;;7.52;100.00
68712;BME280;55690;51.566;19.198;2022-11-13T03:52:32;103280.06;;;7.52;100.00
68712;BME280;55690;51.566;19.198;2022-11-13T03:56:34;103271.13;;;7.48;100.00
68712;BME280;55690;51.566;19.198;2022-11-13T04:00:43;103272.78;;;7.55;100.00
68712;BME280;55690;51.566;19.198;2022-11-13T04:04:54;103268.27;;;7.56;100.00
68712;BME280;55690;51.566;19.198;2022-11-13T04:09:08;103261.94;;;7.57;100.00
68712;BME280;55690;51.566;19.198;2022-11-13T04:13:19;103263.09;;;7.45;100.00
68712;BME280;55690;51.566;19.198;2022-11-13T04:21:35;103260.35;;;7.47;100.00
68712;BME280;55690;51.566;19.198;2022-11-13T04:25:37;103260.25;;;7.51;100.00
68712;BME280;55690;51.566;19.198;2022-11-13T04:29:43;103247.88;;;7.40;100.00
68712;BME280;55690;51.566;19.198;2022-11-13T04:34:12;103255.21;;;7.34;100.00
68712;BME280;55690;51.566;19.198;2022-11-13T04:38:08;103252.36;;;7.41;100.00
68712;BME280;55690;51.566;19.198;2022-11-13T04:42:17;103250.45;;;7.46;100.00
68712;BME280;55690;51.566;19.198;2022-11-13T04:46:31;103251.41;;;7.43;100.00
68712;BME280;55690;51.566;19.198;2022-11-13T04:50:45;103242.41;;;7.43;100.00
68712;BME280;55690;51.566;19.198;2022-11-13T04:55:01;103232.48;;;7.43;100.00
68712;BME280;55690;51.566;19.198;2022-11-13T04:59:03;103244.16;;;7.45;100.00
68712;BME280;55690;51.566;19.198;2022-11-13T05:03:05;103244.09;;;7.48;100.00
68712;BME280;55690;51.566;19.198;2022-11-13T05:07:06;103245.12;;;7.43;100.00
68712;BME280;55690;51.566;19.198;2022-11-13T05:11:08;103250.59;;;7.40;100.00
68712;BME280;55690;51.566;19.198;2022-11-13T05:15:10;103257.72;;;7.44;100.00
68712;BME280;55690;51.566;19.198;2022-11-13T05:19:12;103250.59;;;7.40;100.00
68712;BME280;55690;51.566;19.198;2022-11-13T05:23:14;103257.72;;;7.44;100.00
68712;BME280;55690;51.566;19.198;2022-11-13T05:27:16;103261.37;;;7.41;100.00
68712;BME280;55690;51.566;19.198;2022-11-13T05:31:20;103257.72;;;7.44;100.00
68712;BME280;55690;51.566;19.198;2022-11-13T05:35:21;103253.34;;;7.37;100.00
68712;BME280;55690;51.566;19.198;2022-11-13T05:39:29;103258.81;;;7.35;100.00
68712;BME280;55690;51.566;19.198;2022-11-13T05:43:42;103257.25;;;7.23;100.00
68712;BME280;55690;51.566;19.198;2022-11-13T05:47:56;103257.27;;;7.22;100.00
68712;BME280;55690;51.566;19.198;2022-11-13T05:52:07;103271.41;;;7.36;100.00
68712;BME280;55690;51.566;19.198;2022-11-13T06:00:23;103261.55;;;7.33;100.00
68712;BME280;55690;51.566;19.198;2022-11-13T06:04:38;103269.75;;;7.29;100.00
68712;BME280;55690;51.566;19.198;2022-11-13T06:08:57;103267.02;;;7.30;100.00
68712;BME280;55690;51.566;19.198;2022-11-13T06:12:59;103256.25;;;7.27;100.00
68712;BME280;55690;51.566;19.198;2022-11-13T06:17:01;103266.25;;;7.24;100.00
68712;BME280;55690;51.566;19.198;2022-11-13T06:21:06;103268.27;;;7.13;100.00
68712;BME280;55690;51.566;19.198;2022-11-13T06:25:08;103265.38;;;7.22;100.00
68712;BME280;55690;51.566;19.198;2022-11-13T06:29:11;103267.99;;;7.26;100.00
68712;BME280;55690;51.566;19.198;2022-11-13T06:33:14;103275.50;;;7.11;100.00
68712;BME280;55690;51.566;19.198;2022-11-13T06:37:15;103270.96;;;7.13;100.00
68712;BME280;55690;51.566;19.198;2022-11-13T06:41:20;103273.66;;;7.13;100.00
68712;BME280;55690;51.566;19.198;2022-11-13T06:45:22;103277.39;;;7.06;100.00
68712;BME280;55690;51.566;19.198;2022-11-13T06:49:24;103280.45;;;6.87;100.00
68712;BME280;55690;51.566;19.198;2022-11-13T06:53:30;103273.85;;;7.02;100.00
68712;BME280;55690;51.566;19.198;2022-11-13T06:57:32;103273.83;;;7.04;100.00
68712;BME280;55690;51.566;19.198;2022-11-13T07:01:33;103267.80;;;6.91;100.00
68712;BME280;55690;51.566;19.198;2022-11-13T07:05:35;103260.35;;;7.02;100.00
68712;BME280;55690;51.566;19.198;2022-11-13T07:09:37;103262.88;;;7.11;100.00
68712;BME280;55690;51.566;19.198;2022-11-13T07:13:39;103269.23;;;7.09;100.00
68712;BME280;55690;51.566;19.198;2022-11-13T07:17:41;103261.24;;;7.03;100.00
68712;BME280;55690;51.566;19.198;2022-11-13T07:21:43;103266.65;;;7.03;100.00
68712;BME280;55690;51.566;19.198;2022-11-13T07:25:45;103266.73;;;6.98;100.00
68712;BME280;55690;51.566;19.198;2022-11-13T07:29:46;103258.91;;;6.84;100.00
68712;BME280;55690;51.566;19.198;2022-11-13T07:33:49;103263.45;;;6.82;100.00
68712;BME280;55690;51.566;19.198;2022-11-13T07:41:59;103268.12;;;6.73;100.00
68712;BME280;55690;51.566;19.198;2022-11-13T07:46:05;103275.05;;;6.87;100.00
68712;BME280;55690;51.566;19.198;2022-11-13T07:54:17;103288.30;;;6.99;100.00
68712;BME280;55690;51.566;19.198;2022-11-13T07:58:28;103292.84;;;6.97;100.00
68712;BME280;55690;51.566;19.198;2022-11-13T08:10:45;103298.61;;;6.79;100.00
68712;BME280;55690;51.566;19.198;2022-11-13T08:23:04;103287.20;;;6.62;100.00
68712;BME280;55690;51.566;19.198;2022-11-13T08:31:14;103290.95;;;6.52;100.00
68712;BME280;55690;51.566;19.198;2022-11-13T08:35:20;103290.95;;;6.52;100.00
68712;BME280;55690;51.566;19.198;2022-11-13T08:39:27;103299.98;;;6.51;100.00
68712;BME280;55690;51.566;19.198;2022-11-13T08:47:40;103295.20;;;6.66;100.00
68712;BME280;55690;51.566;19.198;2022-11-13T08:51:46;103311.27;;;6.76;100.00
68712;BME280;55690;51.566;19.198;2022-11-13T08:59:59;103298.80;;;6.67;100.00
68712;BME280;55690;51.566;19.198;2022-11-13T09:04:05;103293.58;;;6.56;100.00
68712;BME280;55690;51.566;19.198;2022-11-13T09:16:42;103282.66;;;6.64;100.00
68712;BME280;55690;51.566;19.198;2022-11-13T09:20:59;103289.77;;;6.70;100.00
68712;BME280;55690;51.566;19.198;2022-11-13T09:28:26;103282.41;;;6.79;100.00
68712;BME280;55690;51.566;19.198;2022-11-13T09:32:33;103284.80;;;6.94;100.00
68712;BME280;55690;51.566;19.198;2022-11-13T09:36:35;103280.20;;;6.99;100.00
68712;BME280;55690;51.566;19.198;2022-11-13T09:44:59;103272.20;;;6.93;100.00
68712;BME280;55690;51.566;19.198;2022-11-13T09:49:17;103273.06;;;6.97;100.00
68712;BME280;55690;51.566;19.198;2022-11-13T10:01:47;103260.72;;;6.84;100.00
68712;BME280;55690;51.566;19.198;2022-11-13T10:06:02;103266.76;;;6.96;100.00
68712;BME280;55690;51.566;19.198;2022-11-13T10:18:30;103245.29;;;6.90;100.00
68712;BME280;55690;51.566;19.198;2022-11-13T10:22:39;103232.41;;;7.03;100.00
68712;BME280;55690;51.566;19.198;2022-11-13T10:26:42;103237.84;;;7.01;100.00
68712;BME280;55690;51.566;19.198;2022-11-13T10:30:49;103236.44;;;6.82;100.00
68712;BME280;55690;51.566;19.198;2022-11-13T10:34:59;103231.03;;;6.82;100.00
68712;BME280;55690;51.566;19.198;2022-11-13T10:39:06;103230.73;;;6.97;100.00
68712;BME280;55690;51.566;19.198;2022-11-13T10:43:15;103226.00;;;7.09;100.00
68712;BME280;55690;51.566;19.198;2022-11-13T10:47:20;103224.66;;;7.31;100.00
68712;BME280;55690;51.566;19.198;2022-11-13T10:51:29;103216.58;;;7.29;100.00
68712;BME280;55690;51.566;19.198;2022-11-13T11:03:49;103191.93;;;7.43;100.00
68712;BME280;55690;51.566;19.198;2022-11-13T11:07:53;103197.02;;;7.17;100.00
68712;BME280;55690;51.566;19.198;2022-11-13T11:16:21;103192.32;;;7.26;100.00
68712;BME280;55690;51.566;19.198;2022-11-13T11:33:03;103183.13;;;7.35;100.00
68712;BME280;55690;51.566;19.198;2022-11-13T11:41:12;103169.41;;;7.43;100.00
68712;BME280;55690;51.566;19.198;2022-11-13T11:49:30;103156.07;;;7.75;100.00
68712;BME280;55690;51.566;19.198;2022-11-13T12:14:43;103134.11;;;7.87;100.00
68712;BME280;55690;51.566;19.198;2022-11-13T12:35:20;103128.32;;;8.03;100.00
68712;BME280;55690;51.566;19.198;2022-11-13T12:47:36;103100.80;;;8.21;100.00
68712;BME280;55690;51.566;19.198;2022-11-13T12:59:53;103096.35;;;8.18;100.00
68712;BME280;55690;51.566;19.198;2022-11-13T13:16:26;103077.17;;;8.26;100.00
68712;BME280;55690;51.566;19.198;2022-11-13T13:28:49;103071.88;;;8.23;100.00
68712;BME280;55690;51.566;19.198;2022-11-13T13:41:17;103049.09;;;8.30;100.00
68712;BME280;55690;51.566;19.198;2022-11-13T13:53:48;103043.71;;;8.28;100.00
68712;BME280;55690;51.566;19.198;2022-11-13T13:57:50;103048.52;;;8.19;100.00
68712;BME280;55690;51.566;19.198;2022-11-13T14:10:21;103032.05;;;8.26;100.00
68712;BME280;55690;51.566;19.198;2022-11-13T14:18:28;103049.17;;;8.27;100.00
68712;BME280;55690;51.566;19.198;2022-11-13T14:22:34;103039.56;;;8.17;100.00
68712;BME280;55690;51.566;19.198;2022-11-13T14:30:42;103048.92;;;8.04;100.00
68712;BME280;55690;51.566;19.198;2022-11-13T14:34:50;103041.49;;;8.12;100.00
68712;BME280;55690;51.566;19.198;2022-11-13T14:38:53;103047.00;;;8.09;100.00
68712;BME280;55690;51.566;19.198;2022-11-13T14:42:58;103047.12;;;8.04;100.00
68712;BME280;55690;51.566;19.198;2022-11-13T14:59:32;103034.14;;;8.17;100.00
68712;BME280;55690;51.566;19.198;2022-11-13T15:07:44;103033.13;;;8.21;100.00
68712;BME280;55690;51.566;19.198;2022-11-13T15:11:46;103027.98;;;8.12;100.00
68712;BME280;55690;51.566;19.198;2022-11-13T15:19:53;103018.92;;;8.13;100.00
68712;BME280;55690;51.566;19.198;2022-11-13T15:23:58;103014.15;;;8.22;100.00
68712;BME280;55690;51.566;19.198;2022-11-13T15:28:01;103016.21;;;8.13;100.00
68712;BME280;55690;51.566;19.198;2022-11-13T15:32:03;103018.75;;;8.19;100.00
68712;BME280;55690;51.566;19.198;2022-11-13T15:36:09;103005.14;;;8.22;100.00
68712;BME280;55690;51.566;19.198;2022-11-13T15:40:12;103009.62;;;8.23;100.00
68712;BME280;55690;51.566;19.198;2022-11-13T15:44:14;103011.77;;;8.10;100.00
68712;BME280;55690;51.566;19.198;2022-11-13T15:48:16;102999.13;;;8.11;100.00
68712;BME280;55690;51.566;19.198;2022-11-13T15:52:18;103006.36;;;8.10;100.00
68712;BME280;55690;51.566;19.198;2022-11-13T15:56:24;103003.95;;;7.99;100.00
68712;BME280;55690;51.566;19.198;2022-11-13T16:04:33;103001.44;;;7.92;100.00
68712;BME280;55690;51.566;19.198;2022-11-13T16:08:42;103000.55;;;7.91;100.00
68712;BME280;55690;51.566;19.198;2022-11-13T16:12:44;103003.14;;;7.96;100.00
68712;BME280;55690;51.566;19.198;2022-11-13T16:16:46;103010.28;;;7.98;100.00
68712;BME280;55690;51.566;19.198;2022-11-13T16:20:54;103013.11;;;7.94;100.00
68712;BME280;55690;51.566;19.198;2022-11-13T16:24:56;103012.34;;;7.89;100.00
68712;BME280;55690;51.566;19.198;2022-11-13T16:28:59;103009.07;;;7.78;100.00
68712;BME280;55690;51.566;19.198;2022-11-13T16:33:08;103016.55;;;7.66;100.00
68712;BME280;55690;51.566;19.198;2022-11-13T16:37:16;103034.33;;;7.77;100.00
68712;BME280;55690;51.566;19.198;2022-11-13T16:45:27;103020.88;;;7.74;100.00
68712;BME280;55690;51.566;19.198;2022-11-13T16:49:29;103029.08;;;7.71;100.00
68712;BME280;55690;51.566;19.198;2022-11-13T16:53:31;103023.67;;;7.71;100.00
68712;BME280;55690;51.566;19.198;2022-11-13T16:57:36;103021.81;;;7.73;100.00
68712;BME280;55690;51.566;19.198;2022-11-13T17:05:43;103038.19;;;7.66;100.00
68712;BME280;55690;51.566;19.198;2022-11-13T17:09:49;103022.12;;;7.60;100.00
68712;BME280;55690;51.566;19.198;2022-11-13T17:18:03;103019.41;;;7.60;100.00
68712;BME280;55690;51.566;19.198;2022-11-13T17:22:07;103022.20;;;7.57;100.00
68712;BME280;55690;51.566;19.198;2022-11-13T17:26:11;103026.41;;;7.69;100.00
68712;BME280;55690;51.566;19.198;2022-11-13T17:30:14;103013.70;;;7.73;100.00
68712;BME280;55690;51.566;19.198;2022-11-13T17:34:20;103007.81;;;7.55;100.00
68712;BME280;55690;51.566;19.198;2022-11-13T17:38:25;103011.45;;;7.54;100.00
68712;BME280;55690;51.566;19.198;2022-11-13T17:42:42;103022.92;;;7.64;100.00
68712;BME280;55690;51.566;19.198;2022-11-13T17:46:44;103016.82;;;7.56;100.00
68712;BME280;55690;51.566;19.198;2022-11-13T17:50:56;103012.34;;;7.55;100.00
68712;BME280;55690;51.566;19.198;2022-11-13T17:55:02;103013.34;;;7.51;100.00
68712;BME280;55690;51.566;19.198;2022-11-13T17:59:08;103008.61;;;7.60;100.00
68712;BME280;55690;51.566;19.198;2022-11-13T18:03:11;103005.08;;;7.57;100.00
68712;BME280;55690;51.566;19.198;2022-11-13T18:07:13;103000.63;;;7.54;100.00
68712;BME280;55690;51.566;19.198;2022-11-13T18:11:17;102995.41;;;7.47;100.00
68712;BME280;55690;51.566;19.198;2022-11-13T18:15:20;102993.45;;;7.53;100.00
68712;BME280;55690;51.566;19.198;2022-11-13T18:19:26;102991.87;;;7.45;100.00
68712;BME280;55690;51.566;19.198;2022-11-13T18:35:46;102992.67;;;7.48;100.00
68712;BME280;55690;51.566;19.198;2022-11-13T18:39:48;102996.34;;;7.46;100.00
68712;BME280;55690;51.566;19.198;2022-11-13T18:47:58;102997.30;;;7.43;100.00
68712;BME280;55690;51.566;19.198;2022-11-13T18:52:03;102963.52;;;7.27;100.00
68712;BME280;55690;51.566;19.198;2022-11-13T19:00:16;102992.93;;;7.38;100.00
68712;BME280;55690;51.566;19.198;2022-11-13T19:04:21;102990.30;;;7.36;100.00
68712;BME280;55690;51.566;19.198;2022-11-13T19:08:23;102977.61;;;7.38;100.00
68712;BME280;55690;51.566;19.198;2022-11-13T19:12:25;102974.09;;;7.36;100.00
68712;BME280;55690;51.566;19.198;2022-11-13T19:16:32;102977.80;;;7.32;100.00
68712;BME280;55690;51.566;19.198;2022-11-13T19:20:37;102984.16;;;7.29;100.00
68712;BME280;55690;51.566;19.198;2022-11-13T19:24:39;102977.80;;;7.32;100.00
68712;BME280;55690;51.566;19.198;2022-11-13T19:32:49;102975.16;;;7.29;100.00
68712;BME280;55690;51.566;19.198;2022-11-13T19:36:53;102968.05;;;7.25;100.00
68712;BME280;55690;51.566;19.198;2022-11-13T19:41:01;102970.61;;;7.31;100.00
68712;BME280;55690;51.566;19.198;2022-11-13T19:45:04;102977.87;;;7.29;100.00
68712;BME280;55690;51.566;19.198;2022-11-13T19:49:08;102973.42;;;7.26;100.00
68712;BME280;55690;51.566;19.198;2022-11-13T19:53:10;102964.61;;;7.18;100.00
68712;BME280;55690;51.566;19.198;2022-11-13T19:57:11;102962.65;;;7.25;100.00
68712;BME280;55690;51.566;19.198;2022-11-13T20:01:16;102955.58;;;7.19;100.00
68712;BME280;55690;51.566;19.198;2022-11-13T20:05:21;102920.08;;;6.97;100.00
68712;BME280;55690;51.566;19.198;2022-11-13T20:30:16;102945.77;;;6.78;100.00
68712;BME280;55690;51.566;19.198;2022-11-13T20:38:33;102941.47;;;6.70;100.00
68712;BME280;55690;51.566;19.198;2022-11-13T20:50:50;102941.70;;;6.59;100.00
68712;BME280;55690;51.566;19.198;2022-11-13T20:54:55;102942.66;;;6.56;100.00
68712;BME280;55690;51.566;19.198;2022-11-13T20:58:57;102946.25;;;6.57;100.00
68712;BME280;55690;51.566;19.198;2022-11-13T21:07:03;102940.16;;;6.49;100.00
68712;BME280;55690;51.566;19.198;2022-11-13T21:11:06;102934.89;;;6.43;100.00
68712;BME280;55690;51.566;19.198;2022-11-13T21:15:08;102933.11;;;6.42;100.00
68712;BME280;55690;51.566;19.198;2022-11-13T21:19:10;102927.78;;;6.39;100.00
68712;BME280;55690;51.566;19.198;2022-11-13T21:23:11;102935.94;;;6.36;100.00
68712;BME280;55690;51.566;19.198;2022-11-13T21:31:19;102942.03;;;6.45;100.00
68712;BME280;55690;51.566;19.198;2022-11-13T21:35:35;102941.34;;;6.36;100.00
68712;BME280;55690;51.566;19.198;2022-11-13T21:43:44;102920.41;;;6.47;100.00
68712;BME280;55690;51.566;19.198;2022-11-13T21:47:51;102912.34;;;6.45;100.00
68712;BME280;55690;51.566;19.198;2022-11-13T21:51:53;102929.36;;;6.49;100.00
68712;BME280;55690;51.566;19.198;2022-11-13T21:55:55;102929.06;;;6.61;100.00
68712;BME280;55690;51.566;19.198;2022-11-13T21:59:56;102930.93;;;6.57;100.00
68712;BME280;55690;51.566;19.198;2022-11-13T22:03:58;102927.38;;;6.55;100.00
68712;BME280;55690;51.566;19.198;2022-11-13T22:08:00;102927.09;;;6.69;100.00
68712;BME280;55690;51.566;19.198;2022-11-13T22:12:05;102925.50;;;6.59;100.00
68712;BME280;55690;51.566;19.198;2022-11-13T22:16:08;102942.59;;;6.59;100.00
68712;BME280;55690;51.566;19.198;2022-11-13T22:20:11;102942.69;;;6.55;100.00
68712;BME280;55690;51.566;19.198;2022-11-13T22:24:13;102951.34;;;6.71;100.00
68712;BME280;55690;51.566;19.198;2022-11-13T22:28:15;102940.33;;;6.80;100.00
68712;BME280;55690;51.566;19.198;2022-11-13T22:32:16;102935.68;;;6.86;100.00
68712;BME280;55690;51.566;19.198;2022-11-13T22:40:23;102928.58;;;6.82;100.00
68712;BME280;55690;51.566;19.198;2022-11-13T22:52:41;102917.55;;;6.91;100.00
68712;BME280;55690;51.566;19.198;2022-11-13T22:56:44;102926.63;;;6.89;100.00
68712;BME280;55690;51.566;19.198;2022-11-13T23:00:54;102915.05;;;6.84;100.00
68712;BME280;55690;51.566;19.198;2022-11-13T23:04:57;102924.52;;;6.63;100.00
68712;BME280;55690;51.566;19.198;2022-11-13T23:13:13;102934.39;;;6.64;100.00
68712;BME280;55690;51.566;19.198;2022-11-13T23:17:15;102928.14;;;6.62;100.00
68712;BME280;55690;51.566;19.198;2022-11-13T23:21:22;102926.43;;;6.58;100.00
68712;BME280;55690;51.566;19.198;2022-11-13T23:25:32;102915.63;;;6.58;100.00
68712;BME280;55690;51.566;19.198;2022-11-13T23:41:52;102908.50;;;6.55;100.00
68712;BME280;55690;51.566;19.198;2022-11-13T23:50:06;102904.63;;;6.67;100.00
68712;BME280;55690;51.566;19.198;2022-11-13T23:54:11;102897.59;;;6.60;100.00
